sensor_id;sensor_type;location;lat;lon;timestamp;pressure;altitude;pressure_sealevel;temperature;humidity
41684;BME280;27369;52.030;4.586;2023-11-19T00:01:22;68497.09;;;-144.41;nan
41684;BME280;27369;52.030;4.586;2023-11-19T00:03:48;71551.66;;;-144.41;nan
41684;BME280;27369;52.030;4.586;2023-11-19T00:06:13;70533.22;;;-144.41;nan
41684;BME280;27369;52.030;4.586;2023-11-19T00:08:38;69260.53;;;-144.41;nan
41684;BME280;27369;52.030;4.586;2023-11-19T00:11:04;70024.09;;;-144.41;nan
41684;BME280;27369;52.030;4.586;2023-11-19T00:13:29;67225.06;;;-144.41;nan
41684;BME280;27369;52.030;4.586;2023-11-19T00:15:54;68751.56;;;-144.41;nan
41684;BME280;27369;52.030;4.586;2023-11-19T00:18:20;70533.22;;;-144.41;nan
41684;BME280;27369;52.030;4.586;2023-11-19T00:20:45;70787.81;;;-144.41;nan
41684;BME280;27369;52.030;4.586;2023-11-19T00:23:11;67225.06;;;-144.41;nan
41684;BME280;27369;52.030;4.586;2023-11-19T00:25:36;65111.19;;;-144.41;nan
41684;BME280;27369;52.030;4.586;2023-11-19T00:28:03;71042.41;;;-144.41;nan
41684;BME280;27369;52.030;4.586;2023-11-19T00:30:29;71806.31;;;-144.41;nan
41684;BME280;27369;52.030;4.586;2023-11-19T00:32:56;68497.09;;;-144.41;nan
41684;BME280;27369;52.030;4.586;2023-11-19T00:35:21;69769.56;;;-144.41;nan
41684;BME280;27369;52.030;4.586;2023-11-19T00:37:46;71806.31;;;-144.41;nan
41684;BME280;27369;52.030;4.586;2023-11-19T00:40:12;66207.72;;;-144.41;nan
41684;BME280;27369;52.030;4.586;2023-11-19T00:42:38;68751.56;;;-144.41;nan
41684;BME280;27369;52.030;4.586;2023-11-19T00:45:03;67988.25;;;-144.41;nan
41684;BME280;27369;52.030;4.586;2023-11-19T00:47:33;71297.03;;;-144.41;nan
41684;BME280;27369;52.030;4.586;2023-11-19T00:49:58;67225.06;;;-144.41;nan
41684;BME280;27369;52.030;4.586;2023-11-19T00:52:24;68751.56;;;-144.41;nan
41684;BME280;27369;52.030;4.586;2023-11-19T00:54:49;69515.03;;;-144.41;nan
41684;BME280;27369;52.030;4.586;2023-11-19T00:57:14;71551.66;;;-144.41;nan
41684;BME280;27369;52.030;4.586;2023-11-19T00:59:43;69769.56;;;-144.41;nan
41684;BME280;27369;52.030;4.586;2023-11-19T01:02:08;68242.66;;;-144.41;nan
41684;BME280;27369;52.030;4.586;2023-11-19T01:04:34;66020.97;;;-144.41;nan
41684;BME280;27369;52.030;4.586;2023-11-19T01:07:01;71042.41;;;-144.41;nan
41684;BME280;27369;52.030;4.586;2023-11-19T01:09:26;63470.94;;;-144.41;nan
41684;BME280;27369;52.030;4.586;2023-11-19T01:11:52;59137.25;;;-144.41;nan
41684;BME280;27369;52.030;4.586;2023-11-19T01:14:18;60684.44;;;-144.41;nan
41684;BME280;27369;52.030;4.586;2023-11-19T01:16:43;61748.00;;;-144.41;nan
41684;BME280;27369;52.030;4.586;2023-11-19T01:19:09;61898.84;;;-144.41;nan
41684;BME280;27369;52.030;4.586;2023-11-19T01:21:35;56084.25;;;-144.41;nan
41684;BME280;27369;52.030;4.586;2023-11-19T01:24:01;59656.88;;;-144.41;nan
41684;BME280;27369;52.030;4.586;2023-11-19T01:26:28;60474.16;;;-144.41;nan
41684;BME280;27369;52.030;4.586;2023-11-19T01:28:53;55051.94;;;-144.41;nan
41684;BME280;27369;52.030;4.586;2023-11-19T01:31:18;60002.00;;;-144.41;nan
41684;BME280;27369;52.030;4.586;2023-11-19T01:33:43;60557.47;;;-144.41;nan
41684;BME280;27369;52.030;4.586;2023-11-19T01:36:09;59510.09;;;-144.41;nan
41684;BME280;27369;52.030;4.586;2023-11-19T01:38:34;56298.28;;;-144.41;nan
41684;BME280;27369;52.030;4.586;2023-11-19T01:41:00;56127.88;;;-144.41;nan
41684;BME280;27369;52.030;4.586;2023-11-19T01:43:46;52491.13;;;-144.41;nan
41684;BME280;27369;52.030;4.586;2023-11-19T01:46:12;53833.72;;;-144.41;nan
41684;BME280;27369;52.030;4.586;2023-11-19T01:48:40;51430.03;;;-144.41;nan
41684;BME280;27369;52.030;4.586;2023-11-19T01:51:06;52685.16;;;-144.41;nan
41684;BME280;27369;52.030;4.586;2023-11-19T01:53:32;51794.25;;;-144.41;nan
41684;BME280;27369;52.030;4.586;2023-11-19T01:55:58;51145.03;;;-144.41;nan
41684;BME280;27369;52.030;4.586;2023-11-19T01:58:23;50662.13;;;-144.41;nan
41684;BME280;27369;52.030;4.586;2023-11-19T02:00:49;53124.72;;;-144.41;nan
41684;BME280;27369;52.030;4.586;2023-11-19T02:03:14;50931.28;;;-144.41;nan
41684;BME280;27369;52.030;4.586;2023-11-19T02:05:40;51869.47;;;-144.41;nan
41684;BME280;27369;52.030;4.586;2023-11-19T02:08:06;51742.78;;;-144.41;nan
41684;BME280;27369;52.030;4.586;2023-11-19T02:10:32;49130.69;;;-144.41;nan
41684;BME280;27369;52.030;4.586;2023-11-19T02:12:57;49486.78;;;-144.41;nan
41684;BME280;27369;52.030;4.586;2023-11-19T02:15:22;49506.56;;;-144.41;nan
41684;BME280;27369;52.030;4.586;2023-11-19T02:17:49;50258.44;;;-144.41;nan
41684;BME280;27369;52.030;4.586;2023-11-19T02:20:15;50068.47;;;-144.41;nan
41684;BME280;27369;52.030;4.586;2023-11-19T02:22:40;50127.84;;;-144.41;nan
41684;BME280;27369;52.030;4.586;2023-11-19T02:25:12;50654.19;;;-144.41;nan
41684;BME280;27369;52.030;4.586;2023-11-19T02:27:58;50135.75;;;-144.41;nan
41684;BME280;27369;52.030;4.586;2023-11-19T02:30:24;51445.88;;;-144.41;nan
41684;BME280;27369;52.030;4.586;2023-11-19T02:32:56;49627.25;;;-144.41;nan
41684;BME280;27369;52.030;4.586;2023-11-19T02:35:22;49502.59;;;-144.41;nan
41684;BME280;27369;52.030;4.586;2023-11-19T02:37:47;50167.41;;;-144.41;nan
41684;BME280;27369;52.030;4.586;2023-11-19T02:40:13;48023.03;;;-144.41;nan
41684;BME280;27369;52.030;4.586;2023-11-19T02:42:38;48414.63;;;-144.41;nan
41684;BME280;27369;52.030;4.586;2023-11-19T02:45:04;50697.75;;;-144.41;nan
41684;BME280;27369;52.030;4.586;2023-11-19T02:47:31;49071.34;;;-144.41;nan
41684;BME280;27369;52.030;4.586;2023-11-19T02:49:56;48798.38;;;-144.41;nan
41684;BME280;27369;52.030;4.586;2023-11-19T02:52:22;49174.22;;;-144.41;nan
41684;BME280;27369;52.030;4.586;2023-11-19T02:54:48;48410.69;;;-144.41;nan
41684;BME280;27369;52.030;4.586;2023-11-19T02:57:13;49296.84;;;-144.41;nan
41684;BME280;27369;52.030;4.586;2023-11-19T02:59:39;48181.25;;;-144.41;nan
41684;BME280;27369;52.030;4.586;2023-11-19T03:02:06;47904.38;;;-144.41;nan
41684;BME280;27369;52.030;4.586;2023-11-19T03:04:35;47904.38;;;-144.41;nan
41684;BME280;27369;52.030;4.586;2023-11-19T03:07:00;48561.00;;;-144.41;nan
41684;BME280;27369;52.030;4.586;2023-11-19T03:09:25;48835.94;;;-144.41;nan
41684;BME280;27369;52.030;4.586;2023-11-19T03:11:50;48169.41;;;-144.41;nan
41684;BME280;27369;52.030;4.586;2023-11-19T03:14:16;47619.63;;;-144.41;nan
41684;BME280;27369;52.030;4.586;2023-11-19T03:16:44;48889.34;;;-144.41;nan
41684;BME280;27369;52.030;4.586;2023-11-19T03:19:11;49387.88;;;-144.41;nan
41684;BME280;27369;52.030;4.586;2023-11-19T03:21:36;49759.81;;;-144.41;nan
41684;BME280;27369;52.030;4.586;2023-11-19T03:24:01;49799.38;;;-144.41;nan
41684;BME280;27369;52.030;4.586;2023-11-19T03:26:27;47168.78;;;-144.41;nan
41684;BME280;27369;52.030;4.586;2023-11-19T03:28:52;48683.63;;;-144.41;nan
41684;BME280;27369;52.030;4.586;2023-11-19T03:31:18;48082.38;;;-144.41;nan
41684;BME280;27369;52.030;4.586;2023-11-19T03:33:43;48454.19;;;-144.41;nan
41684;BME280;27369;52.030;4.586;2023-11-19T03:36:09;47540.53;;;-144.41;nan
41684;BME280;27369;52.030;4.586;2023-11-19T03:38:34;48865.63;;;-144.41;nan
41684;BME280;27369;52.030;4.586;2023-11-19T03:40:59;48584.75;;;-144.41;nan
41684;BME280;27369;52.030;4.586;2023-11-19T03:43:25;48420.56;;;-144.41;nan
41684;BME280;27369;52.030;4.586;2023-11-19T03:45:50;47408.03;;;-144.41;nan
41684;BME280;27369;52.030;4.586;2023-11-19T03:48:15;48090.28;;;-144.41;nan
41684;BME280;27369;52.030;4.586;2023-11-19T03:50:44;47999.31;;;-144.41;nan
41684;BME280;27369;52.030;4.586;2023-11-19T03:53:09;47378.38;;;-144.41;nan
41684;BME280;27369;52.030;4.586;2023-11-19T03:55:34;48145.66;;;-144.41;nan
41684;BME280;27369;52.030;4.586;2023-11-19T03:57:59;47437.69;;;-144.41;nan
41684;BME280;27369;52.030;4.586;2023-11-19T04:00:25;48030.97;;;-144.41;nan
41684;BME280;27369;52.030;4.586;2023-11-19T04:02:50;48074.47;;;-144.41;nan
41684;BME280;27369;52.030;4.586;2023-11-19T04:05:15;47251.84;;;-144.41;nan
41684;BME280;27369;52.030;4.586;2023-11-19T04:07:41;47690.81;;;-144.41;nan
41684;BME280;27369;52.030;4.586;2023-11-19T04:10:06;47350.69;;;-144.41;nan
41684;BME280;27369;52.030;4.586;2023-11-19T04:12:31;47323.03;;;-144.41;nan
41684;BME280;27369;52.030;4.586;2023-11-19T04:14:57;47081.78;;;-144.41;nan
41684;BME280;27369;52.030;4.586;2023-11-19T04:17:22;47374.44;;;-144.41;nan
41684;BME280;27369;52.030;4.586;2023-11-19T04:19:48;48072.50;;;-144.41;nan
41684;BME280;27369;52.030;4.586;2023-11-19T04:22:13;46781.28;;;-144.41;nan
41684;BME280;27369;52.030;4.586;2023-11-19T04:24:38;48104.13;;;-144.41;nan
41684;BME280;27369;52.030;4.586;2023-11-19T04:27:04;48232.69;;;-144.41;nan
41684;BME280;27369;52.030;4.586;2023-11-19T04:29:31;46783.25;;;-144.41;nan
41684;BME280;27369;52.030;4.586;2023-11-19T04:31:56;46773.38;;;-144.41;nan
41684;BME280;27369;52.030;4.586;2023-11-19T04:34:21;47315.09;;;-144.41;nan
41684;BME280;27369;52.030;4.586;2023-11-19T04:36:47;47026.44;;;-144.41;nan
41684;BME280;27369;52.030;4.586;2023-11-19T04:39:12;47184.59;;;-144.41;nan
41684;BME280;27369;52.030;4.586;2023-11-19T04:41:46;46148.69;;;-144.41;nan
41684;BME280;27369;52.030;4.586;2023-11-19T04:44:13;46381.94;;;-144.41;nan
41684;BME280;27369;52.030;4.586;2023-11-19T04:46:38;46508.44;;;-144.41;nan
41684;BME280;27369;52.030;4.586;2023-11-19T04:49:03;47034.34;;;-144.41;nan
41684;BME280;27369;52.030;4.586;2023-11-19T04:51:29;46880.13;;;-144.41;nan
41684;BME280;27369;52.030;4.586;2023-11-19T04:53:55;46852.44;;;-144.41;nan
41684;BME280;27369;52.030;4.586;2023-11-19T04:56:21;46381.94;;;-144.41;nan
41684;BME280;27369;52.030;4.586;2023-11-19T04:58:48;45895.66;;;-144.41;nan
41684;BME280;27369;52.030;4.586;2023-11-19T05:01:13;46468.91;;;-144.41;nan
41684;BME280;27369;52.030;4.586;2023-11-19T05:03:40;46425.44;;;-144.41;nan
41684;BME280;27369;52.030;4.586;2023-11-19T05:06:06;46468.91;;;-144.41;nan
41684;BME280;27369;52.030;4.586;2023-11-19T05:08:31;46152.63;;;-144.41;nan
41684;BME280;27369;52.030;4.586;2023-11-19T05:10:57;46204.03;;;-144.41;nan
41684;BME280;27369;52.030;4.586;2023-11-19T05:13:22;46298.91;;;-144.41;nan
41684;BME280;27369;52.030;4.586;2023-11-19T05:15:48;45919.38;;;-144.41;nan
41684;BME280;27369;52.030;4.586;2023-11-19T05:18:13;46128.91;;;-144.41;nan
41684;BME280;27369;52.030;4.586;2023-11-19T05:20:38;46306.81;;;-144.41;nan
41684;BME280;27369;52.030;4.586;2023-11-19T05:23:03;46128.91;;;-144.41;nan
41684;BME280;27369;52.030;4.586;2023-11-19T05:25:29;46405.66;;;-144.41;nan
41684;BME280;27369;52.030;4.586;2023-11-19T05:27:54;46322.63;;;-144.41;nan
41684;BME280;27369;52.030;4.586;2023-11-19T05:30:20;45868.00;;;-144.41;nan
41684;BME280;27369;52.030;4.586;2023-11-19T05:35:11;46085.41;;;-144.41;nan
41684;BME280;27369;52.030;4.586;2023-11-19T05:40:01;46591.47;;;-144.41;nan
41684;BME280;27369;52.030;4.586;2023-11-19T05:44:54;45986.59;;;-144.41;nan
41684;BME280;27369;52.030;4.586;2023-11-19T05:47:19;46425.44;;;-144.41;nan
41684;BME280;27369;52.030;4.586;2023-11-19T05:49:44;45903.56;;;-144.41;nan
41684;BME280;27369;52.030;4.586;2023-11-19T05:52:10;46805.00;;;-144.41;nan
41684;BME280;27369;52.030;4.586;2023-11-19T05:54:37;47445.63;;;-144.41;nan
41684;BME280;27369;52.030;4.586;2023-11-19T05:57:05;47081.78;;;-144.41;nan
41684;BME280;27369;52.030;4.586;2023-11-19T05:59:34;47010.63;;;-144.41;nan
41684;BME280;27369;52.030;4.586;2023-11-19T06:02:01;46563.81;;;-144.41;nan
41684;BME280;27369;52.030;4.586;2023-11-19T06:04:27;46275.19;;;-144.41;nan
41684;BME280;27369;52.030;4.586;2023-11-19T06:06:52;46397.75;;;-144.41;nan
41684;BME280;27369;52.030;4.586;2023-11-19T06:09:19;46334.50;;;-144.41;nan
41684;BME280;27369;52.030;4.586;2023-11-19T06:11:45;46178.31;;;-144.41;nan
41684;BME280;27369;52.030;4.586;2023-11-19T06:14:12;46045.88;;;-144.41;nan
41684;BME280;27369;52.030;4.586;2023-11-19T06:16:37;46401.69;;;-144.41;nan
41684;BME280;27369;52.030;4.586;2023-11-19T06:19:04;45954.97;;;-144.41;nan
41684;BME280;27369;52.030;4.586;2023-11-19T06:21:30;46211.94;;;-144.41;nan
41684;BME280;27369;52.030;4.586;2023-11-19T06:23:55;46223.78;;;-144.41;nan
41684;BME280;27369;52.030;4.586;2023-11-19T06:26:20;45919.38;;;-144.41;nan
41684;BME280;27369;52.030;4.586;2023-11-19T06:28:47;46006.34;;;-144.41;nan
41684;BME280;27369;52.030;4.586;2023-11-19T06:31:12;46172.41;;;-144.41;nan
41684;BME280;27369;52.030;4.586;2023-11-19T06:33:41;46583.56;;;-144.41;nan
41684;BME280;27369;52.030;4.586;2023-11-19T06:36:06;46124.94;;;-144.41;nan
41684;BME280;27369;52.030;4.586;2023-11-19T06:38:32;46077.50;;;-144.41;nan
41684;BME280;27369;52.030;4.586;2023-11-19T06:40:58;45761.25;;;-144.41;nan
41684;BME280;27369;52.030;4.586;2023-11-19T06:43:23;46176.34;;;-144.41;nan
41684;BME280;27369;52.030;4.586;2023-11-19T06:45:48;46239.59;;;-144.41;nan
41684;BME280;27369;52.030;4.586;2023-11-19T06:48:14;46257.41;;;-144.41;nan
41684;BME280;27369;52.030;4.586;2023-11-19T06:50:39;45875.91;;;-144.41;nan
41684;BME280;27369;52.030;4.586;2023-11-19T06:53:04;46081.47;;;-144.41;nan
41684;BME280;27369;52.030;4.586;2023-11-19T06:55:31;45682.19;;;-144.41;nan
41684;BME280;27369;52.030;4.586;2023-11-19T06:57:57;45358.06;;;-144.41;nan
41684;BME280;27369;52.030;4.586;2023-11-19T07:00:22;45211.81;;;-144.41;nan
41684;BME280;27369;52.030;4.586;2023-11-19T07:02:47;45690.09;;;-144.41;nan
41684;BME280;27369;52.030;4.586;2023-11-19T07:05:13;46089.38;;;-144.41;nan
41684;BME280;27369;52.030;4.586;2023-11-19T07:07:38;45931.25;;;-144.41;nan
41684;BME280;27369;52.030;4.586;2023-11-19T07:10:05;46002.41;;;-144.41;nan
41684;BME280;27369;52.030;4.586;2023-11-19T07:12:33;46350.31;;;-144.41;nan
41684;BME280;27369;52.030;4.586;2023-11-19T07:15:00;45445.03;;;-144.41;nan
41684;BME280;27369;52.030;4.586;2023-11-19T07:17:27;45808.69;;;-144.41;nan
41684;BME280;27369;52.030;4.586;2023-11-19T07:19:52;45954.97;;;-144.41;nan
41684;BME280;27369;52.030;4.586;2023-11-19T07:22:17;45905.53;;;-144.41;nan
41684;BME280;27369;52.030;4.586;2023-11-19T07:24:43;45591.28;;;-144.41;nan
41684;BME280;27369;52.030;4.586;2023-11-19T07:27:08;45334.34;;;-144.41;nan
41684;BME280;27369;52.030;4.586;2023-11-19T07:29:34;45887.75;;;-144.41;nan
41684;BME280;27369;52.030;4.586;2023-11-19T07:31:59;45816.59;;;-144.41;nan
41684;BME280;27369;52.030;4.586;2023-11-19T07:34:27;45674.28;;;-144.41;nan
41684;BME280;27369;52.030;4.586;2023-11-19T07:36:52;45848.22;;;-144.41;nan
41684;BME280;27369;52.030;4.586;2023-11-19T07:39:18;46053.78;;;-144.41;nan
41684;BME280;27369;52.030;4.586;2023-11-19T07:41:43;45812.66;;;-144.41;nan
41684;BME280;27369;52.030;4.586;2023-11-19T07:44:09;46014.25;;;-144.41;nan
41684;BME280;27369;52.030;4.586;2023-11-19T07:46:34;46128.91;;;-144.41;nan
41684;BME280;27369;52.030;4.586;2023-11-19T07:48:59;46204.03;;;-144.41;nan
41684;BME280;27369;52.030;4.586;2023-11-19T07:51:24;46057.75;;;-144.41;nan
41684;BME280;27369;52.030;4.586;2023-11-19T07:53:50;46144.72;;;-144.41;nan
41684;BME280;27369;52.030;4.586;2023-11-19T07:56:15;45812.66;;;-144.41;nan
41684;BME280;27369;52.030;4.586;2023-11-19T07:58:40;45642.66;;;-144.41;nan
41684;BME280;27369;52.030;4.586;2023-11-19T08:01:06;45899.63;;;-144.41;nan
41684;BME280;27369;52.030;4.586;2023-11-19T08:03:31;46014.25;;;-144.41;nan
41684;BME280;27369;52.030;4.586;2023-11-19T08:05:59;45549.78;;;-144.41;nan
41684;BME280;27369;52.030;4.586;2023-11-19T08:08:25;45634.75;;;-144.41;nan
41684;BME280;27369;52.030;4.586;2023-11-19T08:10:50;45476.66;;;-144.41;nan
41684;BME280;27369;52.030;4.586;2023-11-19T08:13:17;45326.44;;;-144.41;nan
41684;BME280;27369;52.030;4.586;2023-11-19T08:15:42;45512.22;;;-144.41;nan
41684;BME280;27369;52.030;4.586;2023-11-19T08:18:08;45322.50;;;-144.41;nan
41684;BME280;27369;52.030;4.586;2023-11-19T08:20:34;45611.03;;;-144.41;nan
41684;BME280;27369;52.030;4.586;2023-11-19T08:22:59;45701.97;;;-144.41;nan
41684;BME280;27369;52.030;4.586;2023-11-19T08:25:24;45354.13;;;-144.41;nan
41684;BME280;27369;52.030;4.586;2023-11-19T08:27:49;45290.88;;;-144.41;nan
41684;BME280;27369;52.030;4.586;2023-11-19T08:30:15;45172.28;;;-144.41;nan
41684;BME280;27369;52.030;4.586;2023-11-19T08:32:40;44887.72;;;-144.41;nan
41684;BME280;27369;52.030;4.586;2023-11-19T08:35:05;44982.59;;;-144.41;nan
41684;BME280;27369;52.030;4.586;2023-11-19T08:37:31;44923.31;;;-144.41;nan
41684;BME280;27369;52.030;4.586;2023-11-19T08:39:56;45109.06;;;-144.41;nan
41684;BME280;27369;52.030;4.586;2023-11-19T08:47:14;44765.22;;;-144.41;nan
41684;BME280;27369;52.030;4.586;2023-11-19T08:49:41;44947.00;;;-144.41;nan
41684;BME280;27369;52.030;4.586;2023-11-19T08:52:06;45073.50;;;-144.41;nan
41684;BME280;27369;52.030;4.586;2023-11-19T09:01:53;44915.41;;;-144.41;nan
41684;BME280;27369;52.030;4.586;2023-11-19T09:04:18;45097.19;;;-144.41;nan
41684;BME280;27369;52.030;4.586;2023-11-19T09:06:43;44915.41;;;-144.41;nan
41684;BME280;27369;52.030;4.586;2023-11-19T09:09:09;45148.59;;;-144.41;nan
41684;BME280;27369;52.030;4.586;2023-11-19T09:11:34;45033.97;;;-144.41;nan
41684;BME280;27369;52.030;4.586;2023-11-19T09:14:00;44907.50;;;-144.41;nan
41684;BME280;27369;52.030;4.586;2023-11-19T09:18:50;45059.66;;;-144.41;nan
41684;BME280;27369;52.030;4.586;2023-11-19T09:28:32;44915.41;;;-144.41;nan
41684;BME280;27369;52.030;4.586;2023-11-19T09:33:22;44950.97;;;-144.41;nan
41684;BME280;27369;52.030;4.586;2023-11-19T09:52:47;45211.81;;;-144.41;nan
41684;BME280;27369;52.030;4.586;2023-11-19T10:02:30;44784.97;;;-144.41;nan
41684;BME280;27369;52.030;4.586;2023-11-19T10:26:44;44931.22;;;-144.41;nan
41684;BME280;27369;52.030;4.586;2023-11-19T10:46:09;44883.78;;;-144.41;nan
41684;BME280;27369;52.030;4.586;2023-11-19T11:00:45;44986.53;;;-144.41;nan
41684;BME280;27369;52.030;4.586;2023-11-19T11:08:06;44761.25;;;-144.41;nan
41684;BME280;27369;52.030;4.586;2023-11-19T11:10:31;44721.75;;;-144.41;nan
41684;BME280;27369;52.030;4.586;2023-11-19T11:12:59;44866.00;;;-144.41;nan
41684;BME280;27369;52.030;4.586;2023-11-19T11:15:27;44749.41;;;-144.41;nan
41684;BME280;27369;52.030;4.586;2023-11-19T11:17:56;44721.75;;;-144.41;nan
41684;BME280;27369;52.030;4.586;2023-11-19T11:20:22;44622.94;;;-144.41;nan
41684;BME280;27369;52.030;4.586;2023-11-19T11:25:30;44709.88;;;-144.41;nan
41684;BME280;27369;52.030;4.586;2023-11-19T11:30:46;44701.97;;;-144.41;nan
41684;BME280;27369;52.030;4.586;2023-11-19T11:38:27;44705.94;;;-144.41;nan
41684;BME280;27369;52.030;4.586;2023-11-19T11:48:42;44954.91;;;-144.41;nan
41684;BME280;27369;52.030;4.586;2023-11-19T11:51:10;44887.72;;;-144.41;nan
41684;BME280;27369;52.030;4.586;2023-11-19T11:53:36;44844.25;;;-144.41;nan
41684;BME280;27369;52.030;4.586;2023-11-19T11:56:02;44915.41;;;-144.41;nan
41684;BME280;27369;52.030;4.586;2023-11-19T12:08:13;45033.97;;;-144.41;nan
41684;BME280;27369;52.030;4.586;2023-11-19T12:13:07;44970.72;;;-144.41;nan
41684;BME280;27369;52.030;4.586;2023-11-19T12:15:33;45022.09;;;-144.41;nan
41684;BME280;27369;52.030;4.586;2023-11-19T12:17:58;44958.88;;;-144.41;nan
41684;BME280;27369;52.030;4.586;2023-11-19T12:20:24;45010.25;;;-144.41;nan
41684;BME280;27369;52.030;4.586;2023-11-19T12:22:51;45045.81;;;-144.41;nan
41684;BME280;27369;52.030;4.586;2023-11-19T12:25:17;44867.97;;;-144.41;nan
41684;BME280;27369;52.030;4.586;2023-11-19T12:28:00;44883.78;;;-144.41;nan
41684;BME280;27369;52.030;4.586;2023-11-19T12:30:29;44864.03;;;-144.41;nan
41684;BME280;27369;52.030;4.586;2023-11-19T12:32:55;44765.22;;;-144.41;nan
41684;BME280;27369;52.030;4.586;2023-11-19T12:35:20;44761.25;;;-144.41;nan
41684;BME280;27369;52.030;4.586;2023-11-19T12:37:46;44761.25;;;-144.41;nan
41684;BME280;27369;52.030;4.586;2023-11-19T12:45:35;44820.53;;;-144.41;nan
41684;BME280;27369;52.030;4.586;2023-11-19T12:48:07;44674.31;;;-144.41;nan
41684;BME280;27369;52.030;4.586;2023-11-19T12:57:48;44879.81;;;-144.41;nan
41684;BME280;27369;52.030;4.586;2023-11-19T13:02:44;44733.59;;;-144.41;nan
41684;BME280;27369;52.030;4.586;2023-11-19T13:12:25;44666.41;;;-144.41;nan
41684;BME280;27369;52.030;4.586;2023-11-19T13:14:51;44761.25;;;-144.41;nan
41684;BME280;27369;52.030;4.586;2023-11-19T13:17:18;44856.13;;;-144.41;nan
41684;BME280;27369;52.030;4.586;2023-11-19T13:19:46;44769.16;;;-144.41;nan
41684;BME280;27369;52.030;4.586;2023-11-19T13:22:11;44694.09;;;-144.41;nan
41684;BME280;27369;52.030;4.586;2023-11-19T13:24:37;44717.78;;;-144.41;nan
41684;BME280;27369;52.030;4.586;2023-11-19T13:27:02;44686.19;;;-144.41;nan
41684;BME280;27369;52.030;4.586;2023-11-19T13:29:28;44547.84;;;-144.41;nan
41684;BME280;27369;52.030;4.586;2023-11-19T13:31:53;44539.97;;;-144.41;nan
41684;BME280;27369;52.030;4.586;2023-11-19T13:34:18;44421.41;;;-144.41;nan
41684;BME280;27369;52.030;4.586;2023-11-19T13:41:34;44437.22;;;-144.41;nan
41684;BME280;27369;52.030;4.586;2023-11-19T13:43:59;44532.06;;;-144.41;nan
41684;BME280;27369;52.030;4.586;2023-11-19T13:46:25;44662.47;;;-144.41;nan
41684;BME280;27369;52.030;4.586;2023-11-19T13:58:31;44595.28;;;-144.41;nan
41684;BME280;27369;52.030;4.586;2023-11-19T14:00:57;44642.72;;;-144.41;nan
41684;BME280;27369;52.030;4.586;2023-11-19T14:03:22;44595.28;;;-144.41;nan
41684;BME280;27369;52.030;4.586;2023-11-19T14:32:29;44654.56;;;-144.41;nan
41684;BME280;27369;52.030;4.586;2023-11-19T14:42:11;44567.63;;;-144.41;nan
41684;BME280;27369;52.030;4.586;2023-11-19T14:51:52;44852.16;;;-144.41;nan
41684;BME280;27369;52.030;4.586;2023-11-19T14:54:18;44674.31;;;-144.41;nan
41684;BME280;27369;52.030;4.586;2023-11-19T14:56:43;44638.75;;;-144.41;nan
41684;BME280;27369;52.030;4.586;2023-11-19T14:59:08;44642.72;;;-144.41;nan
41684;BME280;27369;52.030;4.586;2023-11-19T15:06:24;44670.38;;;-144.41;nan
41684;BME280;27369;52.030;4.586;2023-11-19T15:13:43;44441.16;;;-144.41;nan
41684;BME280;27369;52.030;4.586;2023-11-19T15:40:35;43599.53;;;-144.41;nan
41684;BME280;27369;52.030;4.586;2023-11-19T15:43:00;43548.19;;;-144.41;nan
41684;BME280;27369;52.030;4.586;2023-11-19T15:45:27;43121.50;;;-144.41;nan
41684;BME280;27369;52.030;4.586;2023-11-19T15:47:52;43097.81;;;-144.41;nan
41684;BME280;27369;52.030;4.586;2023-11-19T15:50:18;42896.34;;;-144.41;nan
41684;BME280;27369;52.030;4.586;2023-11-19T15:52:43;42663.28;;;-144.41;nan
41684;BME280;27369;52.030;4.586;2023-11-19T15:55:10;42260.41;;;-144.41;nan
41684;BME280;27369;52.030;4.586;2023-11-19T15:57:37;41829.94;;;-144.41;nan
41684;BME280;27369;52.030;4.586;2023-11-19T16:00:03;42323.59;;;-144.41;nan
41684;BME280;27369;52.030;4.586;2023-11-19T16:02:29;41849.69;;;-144.41;nan
41684;BME280;27369;52.030;4.586;2023-11-19T16:04:55;41703.56;;;-144.41;nan
41684;BME280;27369;52.030;4.586;2023-11-19T16:07:20;41857.59;;;-144.41;nan
41684;BME280;27369;52.030;4.586;2023-11-19T16:09:45;42130.09;;;-144.41;nan
41684;BME280;27369;52.030;4.586;2023-11-19T16:12:12;41956.31;;;-144.41;nan
41684;BME280;27369;52.030;4.586;2023-11-19T16:14:38;41772.69;;;-144.41;nan
41684;BME280;27369;52.030;4.586;2023-11-19T16:17:04;41747.00;;;-144.41;nan
41684;BME280;27369;52.030;4.586;2023-11-19T16:19:29;41466.63;;;-144.41;nan
41684;BME280;27369;52.030;4.586;2023-11-19T16:21:55;40292.06;;;-144.41;nan
41684;BME280;27369;52.030;4.586;2023-11-19T16:24:20;39822.34;;;-144.41;nan
41684;BME280;27369;52.030;4.586;2023-11-19T16:26:45;40317.72;;;-144.41;nan
41684;BME280;27369;52.030;4.586;2023-11-19T16:29:11;40428.25;;;-144.41;nan
41684;BME280;27369;52.030;4.586;2023-11-19T16:31:37;40005.88;;;-144.41;nan
41684;BME280;27369;52.030;4.586;2023-11-19T16:34:02;37957.78;;;-144.41;nan
41684;BME280;27369;52.030;4.586;2023-11-19T16:36:30;37559.34;;;-144.41;nan
41684;BME280;27369;52.030;4.586;2023-11-19T16:38:55;37799.97;;;-144.41;nan
41684;BME280;27369;52.030;4.586;2023-11-19T16:41:21;38308.91;;;-144.41;nan
41684;BME280;27369;52.030;4.586;2023-11-19T16:43:48;36222.28;;;-144.41;nan
41684;BME280;27369;52.030;4.586;2023-11-19T16:46:14;34929.03;;;-144.41;nan
41684;BME280;27369;52.030;4.586;2023-11-19T16:48:40;35134.03;;;-144.41;nan
41684;BME280;27369;52.030;4.586;2023-11-19T16:51:12;34347.59;;;-144.41;nan
41684;BME280;27369;52.030;4.586;2023-11-19T16:53:49;31902.59;;;-144.41;nan
41684;BME280;27369;52.030;4.586;2023-11-19T16:56:15;32493.50;;;-144.41;nan
41684;BME280;27369;52.030;4.586;2023-11-19T16:58:42;33102.25;;;-144.41;nan
41684;BME280;27369;52.030;4.586;2023-11-19T17:01:10;32607.78;;;-144.41;nan
41684;BME280;27369;52.030;4.586;2023-11-19T17:03:39;31170.00;;;-144.41;nan
41684;BME280;27369;52.030;4.586;2023-11-19T17:08:30;34274.69;;;-144.41;nan
41684;BME280;27369;52.030;4.586;2023-11-19T17:11:03;32692.47;;;-144.41;nan